createdAt,value
2024-04-24T00:01:23.155Z,87.52
2024-04-24T00:06:25.017Z,88.47
2024-04-24T00:11:27.566Z,88.60
2024-04-24T00:16:29.637Z,90.46
2024-04-24T00:21:31.492Z,92.86
2024-04-24T00:26:34.990Z,92.54
2024-04-24T00:31:36.804Z,92.76
2024-04-24T00:36:38.612Z,92.15
2024-04-24T00:41:40.390Z,93.54
2024-04-24T00:46:43.876Z,93.36
2024-04-24T00:51:47.035Z,94.54
2024-04-24T00:56:48.869Z,95.27
2024-04-24T01:01:51.070Z,95.94
2024-04-24T01:06:52.823Z,96.75
2024-04-24T01:11:55.001Z,96.69
2024-04-24T01:16:59.575Z,96.19
2024-04-24T01:22:32.499Z,96.41
2024-04-24T01:27:34.355Z,96.50
2024-04-24T01:32:36.372Z,96.75
2024-04-24T01:37:38.250Z,97.49
2024-04-24T01:42:40.077Z,96.90
2024-04-24T01:47:42.000Z,97.36
2024-04-24T01:52:43.918Z,97.33
2024-04-24T01:57:45.745Z,97.18
2024-04-24T02:02:47.594Z,96.59
2024-04-24T02:07:49.416Z,96.20
2024-04-24T02:12:51.308Z,95.52
2024-04-24T02:17:53.241Z,95.70
2024-04-24T02:22:55.078Z,95.51
2024-04-24T02:27:56.883Z,95.16
2024-04-24T02:32:59.137Z,94.12
2024-04-24T02:38:00.995Z,94.62
2024-04-24T02:43:03.762Z,95.45
2024-04-24T02:48:06.254Z,96.24
2024-04-24T02:53:08.148Z,97.06
2024-04-24T02:58:10.525Z,97.53
2024-04-24T03:03:12.454Z,97.80
2024-04-24T03:08:14.440Z,97.41
2024-04-24T03:13:16.298Z,96.58
2024-04-24T03:18:18.214Z,96.71
2024-04-24T03:23:20.062Z,97.40
2024-04-24T03:28:21.836Z,96.77
2024-04-24T03:33:23.613Z,93.38
2024-04-24T03:38:25.556Z,95.21
2024-04-24T03:43:27.477Z,92.82
2024-04-24T03:48:29.293Z,93.15
2024-04-24T03:53:31.112Z,94.21
2024-04-24T03:58:32.943Z,93.35
2024-04-24T04:03:34.785Z,93.99
2024-04-24T04:08:37.656Z,94.24
2024-04-24T04:13:39.464Z,93.56
2024-04-24T04:18:41.316Z,94.72
2024-04-24T04:23:43.115Z,95.41
2024-04-24T04:28:44.969Z,96.77
2024-04-24T04:33:47.516Z,96.39
2024-04-24T04:38:49.377Z,96.31
2024-04-24T04:43:51.213Z,94.43
2024-04-24T04:48:53.463Z,92.16
2024-04-24T04:53:55.361Z,91.63
2024-04-24T04:58:57.223Z,91.26
2024-04-24T05:03:59.070Z,91.26
2024-04-24T05:09:01.001Z,90.07
2024-04-24T05:14:02.811Z,86.16
2024-04-24T05:19:04.835Z,84.51
2024-04-24T05:24:06.990Z,83.50
2024-04-24T05:29:09.009Z,82.07
2024-04-24T05:34:11.042Z,79.89
2024-04-24T05:39:12.884Z,80.45
2024-04-24T05:44:14.876Z,78.39
2024-04-24T05:49:16.768Z,77.13
2024-04-24T05:54:18.581Z,76.15
2024-04-24T05:59:20.377Z,75.44
2024-04-24T06:04:22.194Z,76.24
2024-04-24T06:09:24.399Z,73.95
2024-04-24T06:14:26.454Z,73.33
2024-04-24T06:19:28.308Z,73.34
2024-04-24T06:24:30.425Z,71.96
2024-04-24T06:29:33.271Z,71.08
2024-04-24T06:34:35.170Z,69.96
2024-04-24T06:39:36.987Z,68.08
2024-04-24T06:44:38.984Z,66.96
2024-04-24T06:49:40.948Z,65.51
2024-04-24T06:54:42.742Z,63.81
2024-04-24T06:59:46.146Z,62.00
2024-04-24T07:04:47.911Z,62.26
2024-04-24T07:09:50.212Z,60.74
2024-04-24T07:14:52.044Z,60.99
2024-04-24T07:19:53.875Z,58.90
2024-04-24T07:24:55.839Z,57.53
2024-04-24T07:29:59.335Z,53.47
2024-04-24T07:35:01.184Z,53.65
2024-04-24T07:40:03.050Z,51.39
2024-04-24T07:45:05.280Z,53.57
2024-04-24T07:50:07.137Z,48.98
2024-04-24T07:55:08.936Z,48.99
2024-04-24T08:00:11.828Z,46.73
2024-04-24T08:05:14.337Z,44.08
2024-04-24T08:10:16.192Z,45.53
2024-04-24T08:15:18.016Z,45.77
2024-04-24T08:20:19.915Z,46.90
2024-04-24T08:25:21.835Z,51.10
2024-04-24T08:30:23.770Z,49.49
2024-04-24T08:35:25.702Z,46.57
2024-04-24T08:40:27.533Z,44.96
2024-04-24T08:45:30.026Z,38.98
2024-04-24T08:50:32.327Z,37.57
2024-04-24T08:55:36.779Z,37.79
2024-04-24T09:00:39.578Z,45.16
2024-04-24T09:05:41.997Z,44.45
2024-04-24T09:10:43.977Z,49.17
2024-04-24T09:15:47.015Z,51.58
2024-04-24T09:20:50.951Z,50.26
2024-04-24T09:25:53.123Z,51.98
2024-04-24T09:30:55.027Z,54.43
2024-04-24T09:35:57.982Z,57.17
2024-04-24T09:41:01.518Z,58.32
2024-04-24T09:46:05.066Z,60.91
2024-04-24T09:51:12.476Z,55.80
2024-04-24T09:56:24.941Z,50.56
2024-04-24T10:01:28.501Z,47.27
2024-04-24T10:06:32.738Z,44.04
2024-04-24T10:11:38.742Z,43.13
2024-04-24T10:16:40.701Z,50.04
2024-04-24T10:21:44.327Z,55.06
2024-04-24T10:26:47.469Z,59.78
2024-04-24T10:31:51.611Z,61.00
2024-04-24T10:36:55.123Z,60.95
2024-04-24T10:41:57.688Z,61.15
2024-04-24T10:46:59.548Z,57.19
2024-04-24T10:52:01.348Z,51.77
2024-04-24T10:57:06.862Z,48.16
2024-04-24T11:02:19.191Z,50.22
2024-04-24T11:07:28.609Z,54.93
2024-04-24T11:12:42.174Z,58.49
2024-04-24T11:17:44.836Z,58.79
2024-04-24T11:22:47.260Z,60.02
2024-04-24T11:27:49.118Z,56.56
2024-04-24T11:32:53.768Z,56.00
2024-04-24T11:37:55.799Z,56.22
2024-04-24T11:42:57.674Z,55.36
2024-04-24T11:47:59.616Z,53.40
2024-04-24T11:53:03.527Z,52.55
2024-04-24T11:58:15.314Z,53.10
2024-04-24T12:03:19.526Z,49.72
2024-04-24T12:08:29.305Z,49.50
2024-04-24T12:13:32.452Z,48.84
2024-04-24T12:18:34.904Z,47.06
2024-04-24T12:23:36.788Z,50.25
2024-04-24T12:28:38.592Z,54.93
2024-04-24T12:33:42.506Z,57.43
2024-04-24T12:38:44.413Z,59.30
2024-04-24T12:43:46.169Z,65.39
2024-04-24T12:48:54.352Z,66.08
2024-04-24T12:53:56.315Z,64.29
2024-04-24T12:58:58.264Z,61.50
2024-04-24T13:04:01.353Z,59.67
2024-04-24T13:09:03.299Z,59.02
2024-04-24T13:14:05.101Z,58.69
2024-04-24T13:19:07.087Z,58.78
2024-04-24T13:24:09.048Z,57.81
2024-04-24T13:29:11.413Z,58.15
2024-04-24T13:34:13.748Z,58.84
2024-04-24T13:39:15.596Z,58.60
2024-04-24T13:44:18.057Z,59.47
2024-04-24T13:49:19.909Z,59.02
2024-04-24T13:54:21.746Z,59.93
2024-04-24T13:59:23.580Z,60.81
2024-04-24T14:04:25.910Z,60.64
2024-04-24T14:09:27.753Z,62.01
2024-04-24T14:14:30.567Z,60.76
2024-04-24T14:19:32.417Z,66.64
2024-04-24T14:24:34.327Z,66.46
2024-04-24T14:29:36.190Z,64.79
2024-04-24T14:34:38.175Z,65.17
2024-04-24T14:39:39.954Z,67.24
2024-04-24T14:44:41.742Z,64.63
2024-04-24T14:49:46.727Z,61.28
2024-04-24T14:54:49.301Z,62.61
2024-04-24T14:59:51.174Z,62.43
2024-04-24T15:04:52.945Z,62.67
2024-04-24T15:09:55.693Z,62.28
2024-04-24T15:14:58.159Z,62.08
2024-04-24T15:20:00.385Z,64.19
2024-04-24T15:25:02.238Z,64.30
2024-04-24T15:30:04.343Z,63.37
2024-04-24T15:35:08.401Z,62.33
2024-04-24T15:40:10.439Z,62.93
2024-04-24T15:45:12.208Z,62.90
2024-04-24T15:50:14.034Z,62.06
2024-04-24T15:55:15.870Z,63.88
2024-04-24T16:00:17.645Z,62.12
2024-04-24T16:05:19.535Z,61.89
2024-04-24T16:10:24.063Z,61.85
2024-04-24T16:15:25.834Z,60.57
2024-04-24T16:20:27.657Z,57.96
2024-04-24T16:25:29.433Z,56.72
2024-04-24T16:30:31.199Z,57.49
2024-04-24T16:35:34.089Z,57.82
2024-04-24T16:40:36.081Z,61.22
2024-04-24T16:45:37.863Z,64.18
2024-04-24T16:50:39.686Z,64.45
2024-04-24T16:55:42.839Z,64.14
2024-04-24T17:00:46.502Z,61.92
2024-04-24T17:05:48.378Z,60.90
2024-04-24T17:10:50.226Z,62.31
2024-04-24T17:15:52.119Z,63.63
2024-04-24T17:20:55.767Z,65.70
2024-04-24T17:25:57.718Z,66.29
2024-04-24T17:30:59.656Z,67.43
2024-04-24T17:36:01.498Z,68.23
2024-04-24T17:41:03.633Z,69.25
2024-04-24T17:46:07.722Z,71.29
2024-04-24T17:51:09.543Z,72.44
2024-04-24T17:56:11.460Z,73.98
2024-04-24T18:01:14.303Z,74.74
2024-04-24T18:06:16.141Z,75.90
2024-04-24T18:11:18.262Z,76.85
2024-04-24T18:16:20.060Z,77.28
2024-04-24T18:21:22.002Z,77.48
2024-04-24T18:26:26.362Z,80.17
2024-04-24T18:31:33.092Z,82.01
2024-04-24T18:36:36.167Z,82.06
2024-04-24T18:41:37.981Z,82.66
2024-04-24T18:46:39.780Z,84.37
2024-04-24T18:51:41.550Z,85.23
2024-04-24T18:56:43.837Z,85.91
2024-04-24T19:01:46.437Z,87.89
2024-04-24T19:06:48.205Z,88.66
2024-04-24T19:11:50.140Z,88.70
2024-04-24T19:16:51.935Z,89.06
2024-04-24T19:21:53.695Z,89.28
2024-04-24T19:26:55.472Z,90.53
2024-04-24T19:31:58.370Z,90.83
2024-04-24T19:37:00.275Z,90.30
2024-04-24T19:42:02.453Z,88.88
2024-04-24T19:47:04.480Z,89.29
2024-04-24T19:52:06.331Z,89.91
2024-04-24T19:57:08.125Z,89.59
2024-04-24T20:02:10.285Z,89.03
2024-04-24T20:07:13.848Z,88.39
2024-04-24T20:12:15.754Z,87.99
2024-04-24T20:17:17.664Z,88.26
2024-04-24T20:22:19.488Z,90.08
2024-04-24T20:27:21.319Z,88.95
2024-04-24T20:32:23.359Z,87.32
2024-04-24T20:37:25.170Z,86.57
2024-04-24T20:42:27.512Z,86.23
2024-04-24T20:47:29.440Z,86.03
2024-04-24T20:52:31.345Z,85.96
2024-04-24T20:57:33.333Z,85.62
2024-04-24T21:02:36.379Z,85.55
2024-04-24T21:07:38.270Z,84.54
2024-04-24T21:12:40.027Z,84.63
2024-04-24T21:17:42.964Z,84.38
2024-04-24T21:22:45.066Z,84.54
2024-04-24T21:27:46.862Z,85.63
2024-04-24T21:32:48.752Z,85.43
2024-04-24T21:37:51.517Z,84.90
2024-04-24T21:42:53.342Z,85.13
2024-04-24T21:47:55.875Z,84.48
2024-04-24T21:52:58.743Z,84.30
2024-04-24T21:58:05.343Z,84.38
2024-04-24T22:03:07.525Z,84.42
2024-04-24T22:08:09.468Z,84.58
2024-04-24T22:13:11.321Z,84.77
2024-04-24T22:18:14.161Z,85.50
2024-04-24T22:23:16.133Z,85.86
2024-04-24T22:28:17.975Z,85.87
2024-04-24T22:33:21.806Z,85.93
2024-04-24T22:38:23.701Z,85.99
2024-04-24T22:43:25.540Z,86.44
2024-04-24T22:48:27.414Z,86.27
2024-04-24T22:53:29.471Z,86.73
2024-04-24T22:58:31.460Z,87.33
2024-04-24T23:03:33.265Z,87.45
2024-04-24T23:08:35.133Z,87.12
2024-04-24T23:13:37.097Z,89.91
2024-04-24T23:18:39.147Z,89.54
2024-04-24T23:23:41.224Z,91.33
2024-04-24T23:28:43.091Z,93.05
2024-04-24T23:33:45.652Z,95.70
2024-04-24T23:38:47.445Z,97.09
2024-04-24T23:43:50.078Z,97.63
2024-04-24T23:48:53.428Z,97.50
2024-04-24T23:53:55.641Z,94.12
2024-04-24T23:58:57.491Z,90.25
